createdAt,value
2017-11-08T00:00:59.666Z,50.90
2017-11-08T00:06:01.353Z,45.70
2017-11-08T00:11:03.110Z,55.30
2017-11-08T00:16:07.828Z,45.90
2017-11-08T00:21:10.290Z,63.23
2017-11-08T00:26:12.055Z,63.53
2017-11-08T00:31:14.493Z,64.37
2017-11-08T00:36:16.190Z,61.07
2017-11-08T00:41:17.899Z,51.40
2017-11-08T00:46:19.613Z,51.77
2017-11-08T00:51:22.019Z,55.47
2017-11-08T00:56:23.814Z,62.10
2017-11-08T01:01:25.487Z,63.37
2017-11-08T01:06:27.214Z,61.00
2017-11-08T01:11:28.932Z,62.67
2017-11-08T01:16:30.773Z,61.93
2017-11-08T01:21:33.311Z,72.63
2017-11-08T01:26:35.070Z,70.73
2017-11-08T01:31:37.791Z,70.23
2017-11-08T01:36:39.510Z,71.43
2017-11-08T01:41:42.950Z,74.77
2017-11-08T01:46:45.394Z,71.93
2017-11-08T01:51:48.084Z,76.50
2017-11-08T01:56:50.647Z,76.17
2017-11-08T02:01:52.372Z,81.67
2017-11-08T02:06:58.535Z,81.93
2017-11-08T02:12:04.000Z,88.63
2017-11-08T02:17:09.030Z,83.13
2017-11-08T02:22:10.856Z,73.30
2017-11-08T02:27:12.634Z,93.50
2017-11-08T02:32:14.410Z,89.40
2017-11-08T02:37:16.142Z,82.60
2017-11-08T02:42:17.880Z,90.83
2017-11-08T02:47:20.322Z,92.07
2017-11-08T02:52:22.031Z,85.90
2017-11-08T02:57:23.771Z,90.80
2017-11-08T03:02:29.107Z,93.90
2017-11-08T03:07:30.790Z,93.83
2017-11-08T03:12:32.459Z,90.63
2017-11-08T03:17:34.871Z,95.23
2017-11-08T03:22:36.798Z,83.63
2017-11-08T03:27:38.594Z,75.97
2017-11-08T03:32:40.283Z,79.70
2017-11-08T03:37:42.815Z,71.70
2017-11-08T03:42:44.523Z,81.80
2017-11-08T03:47:46.224Z,72.70
2017-11-08T03:52:47.967Z,68.53
2017-11-08T03:57:52.020Z,79.00
2017-11-08T04:02:53.810Z,83.07
2017-11-08T04:07:55.836Z,81.87
2017-11-08T04:12:59.343Z,81.43
2017-11-08T04:18:02.737Z,89.50
2017-11-08T04:23:07.402Z,87.73
2017-11-08T04:28:09.722Z,71.83
2017-11-08T04:33:11.786Z,82.80
2017-11-08T04:38:13.517Z,80.77
2017-11-08T04:43:16.594Z,81.50
2017-11-08T04:48:18.290Z,75.40
2017-11-08T04:53:19.972Z,69.90
2017-11-08T04:58:22.823Z,72.90
2017-11-08T05:03:24.633Z,73.03
2017-11-08T05:08:26.337Z,65.83
2017-11-08T05:13:28.160Z,75.70
2017-11-08T05:18:30.595Z,87.40
2017-11-08T05:23:32.297Z,72.97
2017-11-08T05:28:34.017Z,78.93
2017-11-08T05:33:35.728Z,85.90
2017-11-08T05:38:37.410Z,76.00
2017-11-08T05:43:39.186Z,97.00
2017-11-08T05:48:40.886Z,87.37
2017-11-08T05:53:42.653Z,82.33
2017-11-08T05:58:44.370Z,91.43
2017-11-08T06:03:46.788Z,80.20
2017-11-08T06:08:48.503Z,86.20
2017-11-08T06:13:50.183Z,82.87
2017-11-08T06:18:51.934Z,82.80
2017-11-08T06:23:53.652Z,89.87
2017-11-08T06:28:55.430Z,87.10
2017-11-08T06:33:57.114Z,93.90
2017-11-08T06:38:58.787Z,88.07
2017-11-08T06:44:00.475Z,91.13
2017-11-08T06:49:02.936Z,90.17
2017-11-08T06:54:07.475Z,87.60
2017-11-08T06:59:09.171Z,89.60
2017-11-08T07:04:10.950Z,104.60
2017-11-08T07:09:13.408Z,78.10
2017-11-08T07:14:15.165Z,100.97
2017-11-08T07:19:17.187Z,90.47
2017-11-08T07:24:18.882Z,81.80
2017-11-08T07:29:20.552Z,81.50
2017-11-08T07:34:23.028Z,88.73
2017-11-08T07:39:24.845Z,94.20
2017-11-08T07:44:26.704Z,84.47
2017-11-08T07:49:28.393Z,91.93
2017-11-08T07:54:36.166Z,96.60
2017-11-08T07:59:40.732Z,80.10
2017-11-08T08:04:43.912Z,92.80
2017-11-08T08:09:52.547Z,87.93
2017-11-08T08:15:03.276Z,88.30
2017-11-08T08:20:10.590Z,84.97
2017-11-08T08:25:22.620Z,95.27
2017-11-08T08:30:40.285Z,90.47
2017-11-08T08:35:47.865Z,104.93
2017-11-08T08:40:57.287Z,99.27
2017-11-08T08:46:11.425Z,96.07
2017-11-08T08:51:21.326Z,96.47
2017-11-08T08:56:32.977Z,101.73
2017-11-08T09:01:42.496Z,96.40
2017-11-08T09:06:55.339Z,89.60
2017-11-08T09:12:04.452Z,90.50
2017-11-08T09:17:13.515Z,96.40
2017-11-08T09:22:23.582Z,94.50
2017-11-08T09:27:33.392Z,96.40
2017-11-08T09:32:41.134Z,95.70
2017-11-08T09:37:54.412Z,98.67
2017-11-08T09:43:07.991Z,107.33
2017-11-08T09:48:20.312Z,103.57
2017-11-08T09:53:29.589Z,122.43
2017-11-08T09:58:38.967Z,108.60
2017-11-08T10:03:47.317Z,116.30
2017-11-08T10:08:57.050Z,95.37
2017-11-08T10:14:08.048Z,91.37
2017-11-08T10:19:20.590Z,93.00
2017-11-08T10:24:31.662Z,85.73
2017-11-08T10:29:42.904Z,88.60
2017-11-08T10:34:52.477Z,85.03
2017-11-08T10:40:02.843Z,68.43
2017-11-08T10:45:11.285Z,74.10
2017-11-08T10:50:18.740Z,75.47
2017-11-08T10:55:27.862Z,70.50
2017-11-08T11:00:48.311Z,76.90
2017-11-08T11:05:57.432Z,74.27
2017-11-08T11:11:05.904Z,73.97
2017-11-08T11:16:16.312Z,76.43
2017-11-08T11:21:24.160Z,70.70
2017-11-08T11:26:33.073Z,72.90
2017-11-08T11:31:34.824Z,76.33
2017-11-08T11:36:37.207Z,68.60
2017-11-08T11:41:40.016Z,101.30
2017-11-08T11:46:41.804Z,75.40
2017-11-08T11:51:43.518Z,74.07
2017-11-08T11:56:45.374Z,79.83
2017-11-08T12:01:47.225Z,74.30
2017-11-08T12:06:48.991Z,76.47
2017-11-08T12:11:50.931Z,76.03
2017-11-08T12:16:57.297Z,77.90
2017-11-08T12:21:59.232Z,90.93
2017-11-08T12:27:04.966Z,80.93
2017-11-08T12:32:08.018Z,82.53
2017-11-08T12:37:09.928Z,78.37
2017-11-08T12:42:13.616Z,86.60
2017-11-08T12:47:21.124Z,89.10
2017-11-08T12:52:23.130Z,93.17
2017-11-08T12:57:29.364Z,84.03
2017-11-08T13:02:32.866Z,88.50
2017-11-08T13:07:35.838Z,121.37
2017-11-08T13:12:37.731Z,88.07
2017-11-08T13:17:39.543Z,91.27
2017-11-08T13:22:41.389Z,92.97
2017-11-08T13:27:47.605Z,92.07
2017-11-08T13:32:55.161Z,95.53
2017-11-08T13:38:01.093Z,99.57
2017-11-08T13:43:03.031Z,97.90
2017-11-08T13:48:04.847Z,94.53
2017-11-08T13:53:06.613Z,91.37
2017-11-08T13:58:08.409Z,81.30
2017-11-08T14:03:10.983Z,92.80
2017-11-08T14:08:12.749Z,101.23
2017-11-08T14:13:14.466Z,88.53
2017-11-08T14:18:16.165Z,103.00
2017-11-08T14:23:17.893Z,89.20
2017-11-08T14:28:19.612Z,91.03
2017-11-08T14:33:22.084Z,103.73
2017-11-08T14:38:23.788Z,88.43
2017-11-08T14:43:25.515Z,97.43
2017-11-08T14:48:27.240Z,91.23
2017-11-08T14:53:29.728Z,92.50
2017-11-08T14:58:31.408Z,97.40
2017-11-08T15:03:33.118Z,83.17
2017-11-08T15:08:34.907Z,102.00
2017-11-08T15:13:36.711Z,100.50
2017-11-08T15:18:38.491Z,109.27
2017-11-08T15:23:40.172Z,134.77
2017-11-08T15:28:41.873Z,100.17
2017-11-08T15:33:45.545Z,100.77
2017-11-08T15:38:47.233Z,88.83
2017-11-08T15:43:48.941Z,98.20
2017-11-08T15:48:50.708Z,95.07
2017-11-08T15:53:52.395Z,97.53
2017-11-08T15:58:54.411Z,110.27
2017-11-08T16:03:56.872Z,103.87
2017-11-08T16:09:00.951Z,94.47
2017-11-08T16:14:04.323Z,140.27
2017-11-08T16:19:06.119Z,109.77
2017-11-08T16:24:07.790Z,103.47
2017-11-08T16:29:10.224Z,114.80
2017-11-08T16:34:11.970Z,96.33
2017-11-08T16:39:13.642Z,97.20
2017-11-08T16:44:15.329Z,98.97
2017-11-08T16:49:17.004Z,104.80
2017-11-08T16:54:19.412Z,103.17
2017-11-08T16:59:36.750Z,99.77
2017-11-08T17:04:38.453Z,95.83
2017-11-08T17:09:40.127Z,98.57
2017-11-08T17:14:41.868Z,99.00
2017-11-08T17:19:44.287Z,110.10
2017-11-08T17:24:46.960Z,93.93
2017-11-08T17:29:48.659Z,102.33
2017-11-08T17:34:50.330Z,99.27
2017-11-08T17:39:51.998Z,98.23
2017-11-08T17:44:54.505Z,105.63
2017-11-08T17:49:56.207Z,104.17
2017-11-08T17:54:58.651Z,98.40
2017-11-08T18:00:00.356Z,107.57
2017-11-08T18:05:02.055Z,121.27
2017-11-08T18:10:03.883Z,107.53
2017-11-08T18:15:05.561Z,109.03
2017-11-08T18:20:07.280Z,111.37
2017-11-08T18:25:08.996Z,112.73
2017-11-08T18:30:10.959Z,113.37
2017-11-08T18:35:12.678Z,107.37
2017-11-08T18:40:14.381Z,111.37
2017-11-08T18:45:16.349Z,105.87
2017-11-08T18:50:18.071Z,116.23
2017-11-08T18:55:19.913Z,116.30
2017-11-08T19:00:22.414Z,107.00
2017-11-08T19:05:24.127Z,111.00
2017-11-08T19:10:26.652Z,109.17
2017-11-08T19:15:29.105Z,109.93
2017-11-08T19:20:30.784Z,98.23
2017-11-08T19:25:32.491Z,107.80
2017-11-08T19:30:34.214Z,101.43
2017-11-08T19:35:35.947Z,116.93
2017-11-08T19:40:37.785Z,106.20
2017-11-08T19:45:39.559Z,122.87
2017-11-08T19:50:42.134Z,111.10
2017-11-08T19:55:45.691Z,115.37
2017-11-08T20:00:49.031Z,116.17
2017-11-08T20:05:51.195Z,110.13
2017-11-08T20:10:52.964Z,119.03
2017-11-08T20:15:54.643Z,125.23
2017-11-08T20:20:56.435Z,116.50
2017-11-08T20:25:58.142Z,115.83
2017-11-08T20:30:59.820Z,116.27
2017-11-08T20:36:01.496Z,101.70
2017-11-08T20:41:03.292Z,108.33
2017-11-08T20:46:05.449Z,101.07
2017-11-08T20:51:08.501Z,111.73
2017-11-08T20:56:11.462Z,115.80
2017-11-08T21:01:13.818Z,108.57
2017-11-08T21:06:15.955Z,105.20
2017-11-08T21:11:18.389Z,113.47
2017-11-08T21:16:20.074Z,99.80
2017-11-08T21:21:21.761Z,108.00
2017-11-08T21:26:23.438Z,110.03
2017-11-08T21:31:25.118Z,107.60
2017-11-08T21:36:26.845Z,109.27
2017-11-08T21:41:29.355Z,104.80
2017-11-08T21:46:31.046Z,116.37
2017-11-08T21:51:32.796Z,108.53
2017-11-08T21:56:34.939Z,97.40
2017-11-08T22:01:36.744Z,99.25
2017-11-08T22:06:38.433Z,109.37
2017-11-08T22:11:40.205Z,102.40
2017-11-08T22:16:41.905Z,107.53
2017-11-08T22:21:43.603Z,110.77
2017-11-08T22:26:45.324Z,111.83
2017-11-08T22:31:47.028Z,102.07
2017-11-08T22:36:48.734Z,109.47
2017-11-08T22:41:50.432Z,104.63
2017-11-08T22:46:52.969Z,100.90
2017-11-08T22:51:55.392Z,97.97
2017-11-08T22:56:58.207Z,107.07
2017-11-08T23:02:00.338Z,105.17
2017-11-08T23:07:02.029Z,101.17
2017-11-08T23:12:03.751Z,108.13
2017-11-08T23:17:05.438Z,92.87
2017-11-08T23:22:07.178Z,106.57
2017-11-08T23:27:08.923Z,100.63
2017-11-08T23:32:11.438Z,94.83
2017-11-08T23:37:13.149Z,104.33
2017-11-08T23:42:14.863Z,105.67
2017-11-08T23:47:16.653Z,111.70
2017-11-08T23:52:18.361Z,107.97
2017-11-08T23:57:20.152Z,100.43
